Time;durP1;ratioP1;P1;durP2;ratioP2;P2;SDS_P1;SDS_P2;PMS_P1;PMS_P2;Temp;Humidity;BMP_temperature;BMP_pressure;BME280_temperature;BME280_humidity;BME280_pressure;Samples;Min_cycle;Max_cycle;Signal;HPM_P1;HPM_P2
2024/01/14 00:00:08;;;;;;;1.02;1.02;;;;;;;-5.41;100.00;95966.84;1024604;28;20301;-68
2024/01/14 00:00:38;;;;;;;2.38;2.28;;;;;;;-5.40;100.00;95971.00;1030165;28;20540;-68
2024/01/14 00:01:15;;;;;;;1.48;1.40;;;;;;;-5.40;100.00;95969.25;1033298;28;20284;-69
2024/01/14 00:01:46;;;;;;;1.55;1.48;;;;;;;-5.37;100.00;95968.94;1029847;28;20116;-68
2024/01/14 00:02:16;;;;;;;1.58;1.52;;;;;;;-5.43;100.00;95966.19;1027112;28;20336;-68
2024/01/14 00:02:47;;;;;;;1.65;1.55;;;;;;;-5.40;100.00;95971.00;1023204;28;20082;-67
2024/01/14 00:03:17;;;;;;;0.63;0.60;;;;;;;-5.41;100.00;95971.97;1021655;28;20035;-68
2024/01/14 00:03:47;;;;;;;9.05;3.38;;;;;;;-5.43;100.00;95972.13;1027727;28;20142;-68
2024/01/14 00:04:18;;;;;;;2.67;1.95;;;;;;;-5.35;100.00;95979.00;1031926;28;20441;-68
2024/01/14 00:04:48;;;;;;;2.15;2.05;;;;;;;-5.39;100.00;95973.41;1027831;28;20034;-69
2024/01/14 00:05:19;;;;;;;2.38;0.98;;;;;;;-5.37;100.00;95978.34;1019918;29;20099;-68
2024/01/14 00:05:49;;;;;;;2.58;1.98;;;;;;;-5.35;100.00;95987.47;1023633;29;20431;-68
2024/01/14 00:06:20;;;;;;;0.40;0.40;;;;;;;-5.37;100.00;95983.47;1023252;28;20027;-67
2024/01/14 00:06:50;;;;;;;3.13;2.65;;;;;;;-5.37;100.00;95983.47;1027705;28;20031;-67
2024/01/14 00:07:21;;;;;;;1.40;1.33;;;;;;;-5.39;100.00;95977.72;1031360;28;20075;-68
2024/01/14 00:07:54;;;;;;;0.98;0.98;;;;;;;-5.39;100.00;95977.72;1030958;28;20042;-66
2024/01/14 00:08:24;;;;;;;1.08;0.63;;;;;;;-5.38;100.00;95971.66;1031886;28;20068;-68
2024/01/14 00:08:55;;;;;;;2.53;2.33;;;;;;;-5.38;100.00;95972.44;1031532;28;20831;-70
2024/01/14 00:09:25;;;;;;;2.85;2.65;;;;;;;-5.38;100.00;95969.09;1027937;28;20900;-70
2024/01/14 00:09:57;;;;;;;3.30;1.73;;;;;;;-5.35;100.00;95968.78;1023802;29;20031;-69
2024/01/14 00:10:28;;;;;;;3.08;2.83;;;;;;;-5.37;100.00;95965.56;1024039;28;20195;-69
2024/01/14 00:10:58;;;;;;;1.90;1.80;;;;;;;-5.39;100.00;95964.94;1031655;28;20269;-68
2024/01/14 00:11:29;;;;;;;2.53;2.33;;;;;;;-5.39;100.00;95962.41;1031186;28;20018;-68
2024/01/14 00:11:59;;;;;;;2.38;2.05;;;;;;;-5.38;100.00;95958.88;1027442;28;20487;-70
2024/01/14 00:12:30;;;;;;;1.27;1.17;;;;;;;-5.39;100.00;95958.06;1023088;28;20031;-68
2024/01/14 00:13:00;;;;;;;1.38;1.27;;;;;;;-5.39;100.00;95954.72;1031291;28;20293;-68
2024/01/14 00:13:31;;;;;;;2.88;2.67;;;;;;;-5.39;100.00;95954.72;1027521;28;20518;-68
2024/01/14 00:14:01;;;;;;;4.22;2.88;;;;;;;-5.37;100.00;95948.47;1023477;28;20427;-70
2024/01/14 00:14:32;;;;;;;2.45;1.75;;;;;;;-5.36;100.00;95942.41;1026993;28;20035;-67
2024/01/14 00:15:03;;;;;;;2.42;2.22;;;;;;;-5.38;100.00;95934.09;1027622;28;20022;-67
2024/01/14 00:15:33;;;;;;;7.43;2.85;;;;;;;-5.36;100.00;95939.06;1019442;28;20024;-68
2024/01/14 00:16:04;;;;;;;7.13;3.20;;;;;;;-5.36;100.00;95936.50;1027993;28;20019;-68
2024/01/14 00:16:34;;;;;;;6.72;3.30;;;;;;;-5.36;100.00;95934.75;1027438;28;20027;-69
2024/01/14 00:17:05;;;;;;;2.28;2.08;;;;;;;-5.30;100.00;95925.63;1019798;29;20111;-69
2024/01/14 00:17:35;;;;;;;1.45;1.17;;;;;;;-5.35;100.00;95915.09;1022689;29;20027;-71
2024/01/14 00:18:05;;;;;;;2.15;1.60;;;;;;;-5.33;100.00;95923.38;1024206;28;20039;-69
2024/01/14 00:18:36;;;;;;;3.10;2.15;;;;;;;-5.35;100.00;95928.66;1031832;28;20386;-69
2024/01/14 00:19:09;;;;;;;1.35;1.33;;;;;;;-5.33;100.00;95923.38;1031881;28;20046;-71
2024/01/14 00:19:39;;;;;;;2.38;2.20;;;;;;;-5.33;100.00;95926.75;1028389;28;20015;-70
2024/01/14 00:20:10;;;;;;;3.03;2.83;;;;;;;-5.32;100.00;95922.44;1028543;28;20259;-71
2024/01/14 00:20:41;;;;;;;2.08;1.88;;;;;;;-5.30;100.00;95925.63;1031959;28;20011;-71
2024/01/14 00:21:11;;;;;;;6.50;2.95;;;;;;;-5.34;100.00;95914.13;1027776;29;20019;-71
2024/01/14 00:21:41;;;;;;;0.10;0.10;;;;;;;-5.34;100.00;95924.34;1030702;28;20015;-70
2024/01/14 00:22:12;;;;;;;2.30;2.05;;;;;;;-5.33;100.00;95925.94;1027565;28;20019;-71
2024/01/14 00:22:42;;;;;;;2.63;2.28;;;;;;;-5.30;100.00;95923.06;1030878;28;20015;-70
2024/01/14 00:23:13;;;;;;;0.65;0.65;;;;;;;-5.31;100.00;95927.38;1031974;28;20022;-70
2024/01/14 00:23:46;;;;;;;2.38;2.05;;;;;;;-5.30;100.00;95915.41;1026627;29;20031;-71
2024/01/14 00:24:16;;;;;;;0.30;0.30;;;;;;;-5.24;100.00;95927.56;1024050;29;20264;-69
2024/01/14 00:24:47;;;;;;;5.15;1.52;;;;;;;-5.26;100.00;95921.81;1029575;28;20107;-69
2024/01/14 00:25:19;;;;;;;1.08;0.98;;;;;;;-5.28;100.00;95914.28;1026906;28;20035;-70
2024/01/14 00:25:49;;;;;;;4.47;2.88;;;;;;;-5.27;100.00;95909.97;1038234;28;20037;-71
2024/01/14 00:26:20;;;;;;;1.05;0.75;;;;;;;-5.30;100.00;95917.94;1039694;28;20271;-70
2024/01/14 00:26:51;;;;;;;3.35;1.92;;;;;;;-5.28;100.00;95916.84;1036724;28;20048;-69
2024/01/14 00:27:21;;;;;;;2.72;2.55;;;;;;;-5.32;100.00;95909.66;1032455;28;20273;-68
2024/01/14 00:27:52;;;;;;;1.90;1.75;;;;;;;-5.33;100.00;95910.59;1027750;28;20446;-68
2024/01/14 00:28:22;;;;;;;3.40;3.00;;;;;;;-5.33;100.00;95915.72;1032135;28;20018;-68
2024/01/14 00:28:55;;;;;;;2.00;1.75;;;;;;;-5.39;100.00;95908.69;1031877;28;20022;-68
2024/01/14 00:29:26;;;;;;;2.45;2.30;;;;;;;-5.32;100.00;95912.22;1024451;28;20054;-70
2024/01/14 00:29:57;;;;;;;1.65;0.88;;;;;;;-5.31;100.00;95911.25;1027579;28;20372;-68
2024/01/14 00:30:28;;;;;;;2.58;2.05;;;;;;;-5.31;100.00;95909.50;1026544;28;20070;-68
2024/01/14 00:30:58;;;;;;;2.80;2.60;;;;;;;-5.32;100.00;95907.09;1024462;28;20333;-70
2024/01/14 00:31:29;;;;;;;0.30;0.30;;;;;;;-5.33;100.00;95908.03;1035733;28;20075;-68
2024/01/14 00:31:59;;;;;;;2.83;2.47;;;;;;;-5.33;100.00;95905.47;1031780;28;20030;-68
2024/01/14 00:32:30;;;;;;;1.95;1.42;;;;;;;-5.33;100.00;95910.59;1031790;28;20022;-70
2024/01/14 00:33:00;;;;;;;1.60;1.50;;;;;;;-5.32;100.00;95905.34;1030776;28;20049;-68
2024/01/14 00:33:31;;;;;;;2.08;1.95;;;;;;;-5.38;100.00;95905.19;1029182;28;20026;-68
2024/01/14 00:34:01;;;;;;;2.35;1.98;;;;;;;-5.33;100.00;95905.47;1027444;28;20034;-69
2024/01/14 00:34:34;;;;;;;0.85;0.85;;;;;;;-5.36;100.00;95913.50;1023231;29;20073;-70
2024/01/14 00:35:05;;;;;;;1.60;1.50;;;;;;;-5.32;100.00;95907.91;1024057;28;20570;-68
2024/01/14 00:35:35;;;;;;;2.17;2.05;;;;;;;-5.36;100.00;95904.06;1024244;28;20387;-68
2024/01/14 00:36:07;;;;;;;4.78;3.28;;;;;;;-5.30;100.00;95911.09;1027978;28;20031;-69
2024/01/14 00:36:39;;;;;;;0.68;0.68;;;;;;;-5.35;100.00;95904.88;1027647;28;20023;-68
2024/01/14 00:37:10;;;;;;;0.60;0.60;;;;;;;-5.35;100.00;95900.53;1021702;28;20263;-69
2024/01/14 00:37:41;;;;;;;7.93;3.95;;;;;;;-5.32;100.00;95902.00;1023529;28;20271;-69
2024/01/14 00:38:13;;;;;;;0.63;0.63;;;;;;;-5.30;100.00;95902.59;1023170;29;20599;-70
2024/01/14 00:38:44;;;;;;;1.33;1.25;;;;;;;-5.35;100.00;95902.31;1023805;28;20377;-69
2024/01/14 00:39:15;;;;;;;2.03;1.63;;;;;;;-5.38;100.00;95898.31;1023962;28;20647;-68
2024/01/14 00:39:49;;;;;;;17.25;2.70;;;;;;;-5.36;100.00;95890.50;1028262;28;20035;-68
2024/01/14 00:40:19;;;;;;;0.57;0.57;;;;;;;-5.42;100.00;95894.47;1024969;28;20526;-68
2024/01/14 00:40:49;;;;;;;4.22;2.97;;;;;;;-5.37;100.00;95896.53;1020158;29;20280;-68
2024/01/14 00:41:20;;;;;;;3.22;2.92;;;;;;;-5.34;100.00;95893.66;1019844;29;20110;-69
2024/01/14 00:41:50;;;;;;;1.25;1.15;;;;;;;-5.29;100.00;95896.56;1022768;28;20407;-68
2024/01/14 00:42:24;;;;;;;4.03;2.85;;;;;;;-5.27;100.00;95897.19;1023711;28;20134;-69
2024/01/14 00:42:55;;;;;;;2.13;1.83;;;;;;;-5.34;100.00;95886.00;1027539;28;20270;-68
2024/01/14 00:43:26;;;;;;;3.85;3.25;;;;;;;-5.29;100.00;95894.00;1031652;28;20018;-68
2024/01/14 00:43:56;;;;;;;1.78;1.66;;;;;;;-5.29;100.00;95892.25;1025459;28;20034;-68
2024/01/14 00:44:27;;;;;;;1.35;1.08;;;;;;;-5.25;100.00;95893.50;1027465;28;20035;-68
2024/01/14 00:44:57;;;;;;;7.13;3.05;;;;;;;-5.25;100.00;95882.50;1023878;28;20031;-68
2024/01/14 00:45:28;;;;;;;3.33;2.28;;;;;;;-5.29;100.00;95882.00;1029485;28;20031;-68
2024/01/14 00:45:58;;;;;;;3.30;3.00;;;;;;;-5.29;100.00;95876.91;1027418;28;20034;-70
2024/01/14 00:46:31;;;;;;;10.75;3.92;;;;;;;-5.37;100.00;95868.41;1023181;28;20038;-68
2024/01/14 00:47:02;;;;;;;7.35;1.27;;;;;;;-5.28;100.00;95883.59;1019554;29;20083;-68
2024/01/14 00:47:32;;;;;;;5.63;3.35;;;;;;;-5.26;100.00;95878.34;1023667;29;20274;-68
2024/01/14 00:48:03;;;;;;;0.82;0.82;;;;;;;-5.26;100.00;95891.13;1022394;29;20705;-67
2024/01/14 00:48:34;;;;;;;0.77;0.77;;;;;;;-5.27;100.00;95882.63;1023056;28;20107;-68
2024/01/14 00:49:04;;;;;;;0.93;0.93;;;;;;;-5.24;100.00;95878.97;1025298;28;20259;-69
2024/01/14 00:49:35;;;;;;;2.85;2.63;;;;;;;-5.24;100.00;95881.53;1023798;28;20035;-68
2024/01/14 00:50:06;;;;;;;2.40;0.57;;;;;;;-5.25;100.00;95880.72;1031568;28;20594;-68
2024/01/14 00:50:36;;;;;;;2.38;2.20;;;;;;;-5.25;100.00;95882.50;1030877;28;20391;-69
2024/01/14 00:51:06;;;;;;;0.60;0.60;;;;;;;-5.24;100.00;95877.19;1027373;28;20023;-68
2024/01/14 00:51:37;;;;;;;2.40;2.10;;;;;;;-5.24;100.00;95878.97;1031545;28;20565;-68
2024/01/14 00:52:07;;;;;;;1.65;1.58;;;;;;;-5.23;100.00;95880.59;1029722;28;20075;-68
2024/01/14 00:52:38;;;;;;;0.45;0.45;;;;;;;-5.34;100.00;95855.31;1034575;28;20022;-68
2024/01/14 00:53:08;;;;;;;0.68;0.68;;;;;;;-5.20;100.00;95880.22;1035533;28;20065;-68
2024/01/14 00:53:39;;;;;;;4.50;2.00;;;;;;;-5.22;100.00;95882.97;1035342;28;20502;-69
2024/01/14 00:54:09;;;;;;;2.08;1.95;;;;;;;-5.22;100.00;95877.84;1031395;28;20114;-70
2024/01/14 00:54:40;;;;;;;0.90;0.90;;;;;;;-5.23;100.00;95876.25;1031268;28;20021;-68
2024/01/14 00:55:10;;;;;;;3.03;2.83;;;;;;;-5.25;100.00;95873.06;1027337;28;20050;-69
2024/01/14 00:55:41;;;;;;;4.72;4.05;;;;;;;-5.25;100.00;95873.06;1023599;28;20036;-68
2024/01/14 00:56:12;;;;;;;6.05;3.90;;;;;;;-5.22;100.00;95870.19;1030019;28;20057;-68
2024/01/14 00:56:43;;;;;;;4.10;2.05;;;;;;;-5.19;100.00;95874.19;1027180;28;20065;-69
2024/01/14 00:57:15;;;;;;;6.13;2.65;;;;;;;-5.20;100.00;95880.22;1031888;28;20265;-68
2024/01/14 00:57:47;;;;;;;3.67;2.83;;;;;;;-5.21;100.00;95863.28;1021201;28;20432;-71
2024/01/14 00:58:17;;;;;;;2.67;2.05;;;;;;;-5.16;100.00;95884.09;1015458;29;20549;-68
2024/01/14 00:58:48;;;;;;;6.45;3.85;;;;;;;-5.16;100.00;95873.84;1018506;29;20268;-66
2024/01/14 00:59:18;;;;;;;1.45;1.35;;;;;;;-5.18;100.00;95873.22;1016479;28;20039;-69
2024/01/14 00:59:49;;;;;;;3.53;1.98;;;;;;;-5.18;100.00;95874.97;1032566;28;20038;-69
2024/01/14 01:00:19;;;;;;;1.33;0.82;;;;;;;-5.19;100.00;95879.28;1027273;28;20045;-68
2024/01/14 01:00:50;;;;;;;0.93;0.93;;;;;;;-5.23;100.00;95863.47;1024083;28;20023;-68
2024/01/14 01:01:20;;;;;;;0.95;0.95;;;;;;;-5.20;100.00;95872.56;1023626;29;20418;-69
2024/01/14 01:01:51;;;;;;;0.77;0.77;;;;;;;-5.17;100.00;95864.56;1020100;29;20035;-68
2024/01/14 01:02:21;;;;;;;2.83;2.13;;;;;;;-5.17;100.00;95868.88;1024301;28;20032;-68
2024/01/14 01:02:52;;;;;;;1.98;1.85;;;;;;;-5.22;100.00;95861.72;1028059;28;20027;-68
2024/01/14 01:03:23;;;;;;;3.72;3.45;;;;;;;-5.17;100.00;95868.88;1036047;28;20068;-67
2024/01/14 01:03:53;;;;;;;1.15;1.05;;;;;;;-5.21;100.00;95873.53;1036279;28;20291;-68
2024/01/14 01:04:24;;;;;;;0.80;0.80;;;;;;;-5.19;100.00;95873.38;1036355;28;20088;-67
2024/01/14 01:04:54;;;;;;;3.63;1.98;;;;;;;-5.21;100.00;95863.28;1040125;28;20026;-69
2024/01/14 01:05:25;;;;;;;1.58;1.48;;;;;;;-5.18;100.00;95867.31;1040666;28;20481;-68
2024/01/14 01:05:55;;;;;;;2.47;2.20;;;;;;;-5.16;100.00;95866.19;1040543;28;20056;-68
2024/01/14 01:06:26;;;;;;;2.63;2.20;;;;;;;-5.23;100.00;95855.00;1035684;28;20030;-70
2024/01/14 01:06:56;;;;;;;2.95;2.75;;;;;;;-5.22;100.00;95864.28;1032239;28;20046;-68
2024/01/14 01:07:26;;;;;;;1.77;1.67;;;;;;;-5.20;100.00;95870.00;1032238;28;20050;-68
2024/01/14 01:07:57;;;;;;;3.28;2.95;;;;;;;-5.17;100.00;95862.00;1027847;28;20038;-68
2024/01/14 01:08:27;;;;;;;11.32;3.47;;;;;;;-5.18;100.00;95868.09;1028211;28;20074;-68
2024/01/14 01:08:59;;;;;;;6.90;3.55;;;;;;;-5.17;100.00;95867.13;1024060;29;20388;-67
2024/01/14 01:09:30;;;;;;;2.30;2.10;;;;;;;-5.15;100.00;95866.97;1025260;28;20031;-68
2024/01/14 01:10:00;;;;;;;5.15;3.28;;;;;;;-5.15;100.00;95861.88;1032004;28;20273;-68
2024/01/14 01:10:33;;;;;;;6.13;1.27;;;;;;;-5.15;100.00;95864.41;1027953;28;20038;-70
2024/01/14 01:11:05;;;;;;;0.28;0.28;;;;;;;-5.14;100.00;95864.25;1028964;28;20049;-68
2024/01/14 01:11:36;;;;;;;2.30;2.13;;;;;;;-5.20;100.00;95859.78;1031827;28;20286;-68
2024/01/14 01:12:07;;;;;;;2.10;1.80;;;;;;;-5.19;100.00;95861.38;1025255;28;20278;-67
2024/01/14 01:12:38;;;;;;;3.22;2.38;;;;;;;-5.17;100.00;95858.66;1024132;29;20161;-68
2024/01/14 01:13:08;;;;;;;1.77;1.67;;;;;;;-5.16;100.00;95861.06;1024274;28;20554;-68
2024/01/14 01:13:39;;;;;;;0.85;0.85;;;;;;;-5.18;100.00;95857.88;1025138;28;20275;-68
2024/01/14 01:14:09;;;;;;;1.42;1.42;;;;;;;-5.17;100.00;95864.56;1029248;28;20577;-69
2024/01/14 01:14:40;;;;;;;6.05;3.63;;;;;;;-5.18;100.00;95868.09;1035684;28;20030;-68
2024/01/14 01:15:11;;;;;;;1.35;0.93;;;;;;;-5.20;100.00;95870.00;1040062;28;20026;-70
2024/01/14 01:15:41;;;;;;;1.70;1.60;;;;;;;-5.19;100.00;95865.72;1040232;28;20288;-70
2024/01/14 01:16:12;;;;;;;1.13;0.82;;;;;;;-5.22;100.00;95867.63;1036213;28;20014;-69
2024/01/14 01:16:42;;;;;;;2.85;2.13;;;;;;;-5.22;100.00;95861.72;1027741;28;20558;-69
2024/01/14 01:17:13;;;;;;;1.20;1.20;;;;;;;-5.17;100.00;95862.00;1024490;29;20040;-69
2024/01/14 01:17:43;;;;;;;2.28;1.50;;;;;;;-5.18;100.00;95862.97;1024467;29;20092;-69
2024/01/14 01:18:13;;;;;;;0.75;0.75;;;;;;;-5.17;100.00;95859.44;1030472;28;20039;-71
2024/01/14 01:18:44;;;;;;;3.83;3.45;;;;;;;-5.15;100.00;95862.66;1032138;28;20027;-70
2024/01/14 01:19:14;;;;;;;2.55;2.08;;;;;;;-5.15;100.00;95860.09;1035891;28;20006;-70
2024/01/14 01:19:45;;;;;;;2.40;2.30;;;;;;;-5.13;100.00;95859.94;1034971;28;20014;-69
2024/01/14 01:20:15;;;;;;;2.90;2.70;;;;;;;-5.16;100.00;95866.19;1029102;28;20030;-68
2024/01/14 01:20:48;;;;;;;4.45;2.50;;;;;;;-5.15;100.00;95865.22;1032927;28;20014;-68
2024/01/14 01:21:20;;;;;;;0.80;0.63;;;;;;;-5.13;100.00;95862.47;1032727;28;20022;-67
2024/01/14 01:21:51;;;;;;;4.57;4.20;;;;;;;-5.17;100.00;95848.44;1029070;28;20313;-68
2024/01/14 01:22:21;;;;;;;2.72;2.58;;;;;;;-5.12;100.00;95862.34;1033051;28;20261;-66
2024/01/14 01:22:52;;;;;;;4.75;2.58;;;;;;;-5.14;100.00;95861.69;1028435;28;20266;-67
2024/01/14 01:23:22;;;;;;;2.47;2.03;;;;;;;-5.12;100.00;95862.34;1028396;28;20015;-69
2024/01/14 01:23:53;;;;;;;1.30;1.10;;;;;;;-5.11;100.00;95863.94;1028112;28;20581;-68
2024/01/14 01:24:23;;;;;;;1.50;1.40;;;;;;;-5.11;100.00;95863.94;1028435;28;20014;-68
2024/01/14 01:24:54;;;;;;;5.25;1.90;;;;;;;-5.11;100.00;95858.00;1034646;28;20029;-67
2024/01/14 01:25:25;;;;;;;4.90;2.70;;;;;;;-5.11;100.00;95861.38;1022822;28;20015;-69
2024/01/14 01:25:55;;;;;;;1.42;1.35;;;;;;;-5.08;100.00;95866.16;1028104;28;20027;-69
2024/01/14 01:26:26;;;;;;;8.52;3.35;;;;;;;-5.14;100.00;95848.09;1027954;28;20077;-69
2024/01/14 01:26:56;;;;;;;0.70;0.70;;;;;;;-5.15;100.00;95852.44;1028446;28;20014;-68
2024/01/14 01:27:29;;;;;;;3.40;1.85;;;;;;;-5.12;100.00;95856.44;1027787;28;20023;-69
2024/01/14 01:27:59;;;;;;;21.85;4.05;;;;;;;-5.05;100.00;95855.59;1023189;29;20015;-68
2024/01/14 01:28:30;;;;;;;3.40;3.13;;;;;;;-5.05;100.00;95850.50;1024211;28;20274;-68
2024/01/14 01:29:00;;;;;;;1.10;1.10;;;;;;;-5.07;100.00;95847.28;1028582;28;20023;-68
2024/01/14 01:29:31;;;;;;;2.45;2.25;;;;;;;-5.03;100.00;95851.13;1023959;28;20382;-69
2024/01/14 01:30:01;;;;;;;1.75;1.65;;;;;;;-5.03;100.00;95846.03;1026428;28;20019;-69
2024/01/14 01:30:31;;;;;;;0.52;0.52;;;;;;;-5.03;100.00;95850.31;1023923;29;20024;-68
2024/01/14 01:31:02;;;;;;;2.47;2.28;;;;;;;-5.05;100.00;95834.34;1024308;28;20019;-67
2024/01/14 01:31:33;;;;;;;0.88;0.88;;;;;;;-4.99;100.00;95846.50;1023901;28;20023;-68
2024/01/14 01:32:04;;;;;;;3.33;1.02;;;;;;;-4.97;100.00;95844.56;1027839;28;20868;-65
2024/01/14 01:32:34;;;;;;;1.88;1.77;;;;;;;-4.98;100.00;95842.97;1028144;28;20027;-68
2024/01/14 01:33:05;;;;;;;0.95;0.90;;;;;;;-5.02;100.00;95827.16;1028389;28;20018;-70
2024/01/14 01:33:35;;;;;;;1.50;1.50;;;;;;;-5.00;100.00;95840.59;1027581;28;20011;-68
2024/01/14 01:34:06;;;;;;;2.40;2.03;;;;;;;-5.00;100.00;95830.34;1020498;29;20012;-68
2024/01/14 01:34:36;;;;;;;4.47;2.30;;;;;;;-5.02;100.00;95831.47;1019908;29;20099;-68
2024/01/14 01:35:07;;;;;;;5.35;2.92;;;;;;;-5.03;100.00;95832.41;1022195;28;20036;-67
2024/01/14 01:35:37;;;;;;;1.27;1.17;;;;;;;-5.05;100.00;95837.69;1024647;28;20029;-69
2024/01/14 01:36:08;;;;;;;2.05;1.90;;;;;;;-5.02;100.00;95842.50;1028229;28;20034;-68
2024/01/14 01:36:39;;;;;;;4.10;3.70;;;;;;;-5.05;100.00;95837.69;1024400;29;20513;-68
2024/01/14 01:37:10;;;;;;;1.95;1.83;;;;;;;-5.10;100.00;95829.69;1024473;28;20082;-69
2024/01/14 01:37:40;;;;;;;1.02;1.00;;;;;;;-5.01;100.00;95844.09;1020140;29;20378;-68
2024/01/14 01:38:11;;;;;;;2.13;2.00;;;;;;;-5.04;100.00;95839.28;1024382;29;20574;-69
2024/01/14 01:38:41;;;;;;;5.85;1.45;;;;;;;-5.06;100.00;95841.22;1020356;29;20043;-69
2024/01/14 01:39:14;;;;;;;1.25;1.25;;;;;;;-5.11;100.00;95840.09;1020662;29;20422;-68
2024/01/14 01:39:44;;;;;;;1.45;1.35;;;;;;;-5.14;100.00;95837.88;1020711;29;20040;-69
2024/01/14 01:40:14;;;;;;;3.38;1.67;;;;;;;-5.13;100.00;95837.72;1024170;28;20714;-68
2024/01/14 01:40:46;;;;;;;1.38;1.38;;;;;;;-5.12;100.00;95838.53;1028678;28;20398;-68
2024/01/14 01:41:16;;;;;;;2.88;1.05;;;;;;;-5.12;100.00;95834.19;1032217;28;20026;-67
2024/01/14 01:41:47;;;;;;;2.90;1.60;;;;;;;-5.07;100.00;95836.25;1036575;28;20678;-68
2024/01/14 01:42:18;;;;;;;1.80;1.70;;;;;;;-5.12;100.00;95835.97;1040603;28;20021;-68
2024/01/14 01:42:49;;;;;;;2.05;1.95;;;;;;;-5.13;100.00;95835.16;1032620;28;20328;-67
2024/01/14 01:43:20;;;;;;;3.75;3.47;;;;;;;-5.13;100.00;95834.34;1032264;28;20026;-68
2024/01/14 01:43:50;;;;;;;7.28;2.70;;;;;;;-5.09;100.00;95833.88;1031036;28;20274;-69
2024/01/14 01:44:21;;;;;;;1.30;1.27;;;;;;;-5.09;100.00;95836.44;1032034;28;20030;-68
2024/01/14 01:44:52;;;;;;;0.90;0.90;;;;;;;-5.08;100.00;95832.13;1036337;28;20575;-68
2024/01/14 01:45:22;;;;;;;1.35;1.25;;;;;;;-5.07;100.00;95837.06;1027879;28;20062;-68
2024/01/14 01:45:54;;;;;;;6.75;1.98;;;;;;;-5.06;100.00;95836.13;1031877;28;20880;-68
2024/01/14 01:46:24;;;;;;;2.97;1.45;;;;;;;-5.06;100.00;95831.00;1020110;29;20119;-68
2024/01/14 01:46:55;;;;;;;0.77;0.77;;;;;;;-5.08;100.00;95835.47;1015845;29;20279;-68
2024/01/14 01:47:25;;;;;;;2.83;1.67;;;;;;;-5.03;100.00;95824.72;1017741;29;20087;-68
2024/01/14 01:47:55;;;;;;;3.72;3.08;;;;;;;-5.05;100.00;95817.25;1023270;28;20026;-68
2024/01/14 01:48:26;;;;;;;3.95;2.63;;;;;;;-5.07;100.00;95834.50;1023720;28;20023;-68
2024/01/14 01:48:56;;;;;;;1.20;1.10;;;;;;;-5.07;100.00;95828.59;1023560;28;20031;-68
2024/01/14 01:49:27;;;;;;;1.23;1.23;;;;;;;-5.11;100.00;95825.56;1019835;29;20083;-69
2024/01/14 01:49:58;;;;;;;4.32;2.08;;;;;;;-5.12;100.00;95831.66;1016250;29;20538;-68
2024/01/14 01:50:28;;;;;;;4.95;1.45;;;;;;;-5.07;100.00;95826.03;1013842;29;20028;-67
2024/01/14 01:50:58;;;;;;;1.00;1.00;;;;;;;-5.06;100.00;95820.75;1020024;29;20037;-68
2024/01/14 01:51:29;;;;;;;1.92;1.83;;;;;;;-5.11;100.00;95812.78;1021245;28;20092;-68
2024/01/14 01:52:00;;;;;;;3.30;2.53;;;;;;;-5.06;100.00;95814.84;1027489;28;20033;-69
2024/01/14 01:52:31;;;;;;;1.75;1.65;;;;;;;-5.08;100.00;95812.44;1024402;28;20153;-68
2024/01/14 01:53:01;;;;;;;3.97;2.72;;;;;;;-5.07;100.00;95814.03;1028116;28;20023;-68
2024/01/14 01:53:32;;;;;;;1.70;1.27;;;;;;;-5.12;100.00;95808.63;1027013;28;20363;-68
2024/01/14 01:54:02;;;;;;;1.80;1.70;;;;;;;-5.07;100.00;95814.03;1020102;28;20019;-69
2024/01/14 01:54:33;;;;;;;3.17;2.88;;;;;;;-5.05;100.00;95809.56;1029204;28;20019;-68
2024/01/14 01:55:04;;;;;;;5.32;3.25;;;;;;;-5.06;100.00;95807.97;1020161;29;20031;-69
2024/01/14 01:55:34;;;;;;;1.02;1.02;;;;;;;-5.03;100.00;95815.31;1022150;29;20511;-69
2024/01/14 01:56:05;;;;;;;8.50;2.53;;;;;;;-5.09;100.00;95804.94;1024068;29;20128;-68
2024/01/14 01:56:36;;;;;;;2.15;2.05;;;;;;;-5.06;100.00;95810.53;1024148;28;20062;-68
2024/01/14 01:57:06;;;;;;;0.35;0.35;;;;;;;-5.07;100.00;95795.34;1029020;28;20031;-68
2024/01/14 01:57:37;;;;;;;2.08;1.38;;;;;;;-5.07;100.00;95801.25;1023913;29;20272;-67
2024/01/14 01:58:07;;;;;;;3.40;3.10;;;;;;;-5.08;100.00;95804.78;1016086;29;20028;-69
2024/01/14 01:58:38;;;;;;;3.85;1.52;;;;;;;-5.05;100.00;95809.56;1024118;29;20031;-68
2024/01/14 01:59:08;;;;;;;2.65;2.05;;;;;;;-5.08;100.00;95801.41;1027736;28;20359;-68
2024/01/14 01:59:39;;;;;;;1.08;0.98;;;;;;;-5.09;100.00;95805.75;1020764;29;20030;-68
2024/01/14 02:00:11;;;;;;;2.65;2.47;;;;;;;-5.15;100.00;95798.72;1015937;29;20028;-68
2024/01/14 02:00:41;;;;;;;0.40;0.40;;;;;;;-5.09;100.00;95805.75;1011173;29;20029;-67
2024/01/14 02:01:12;;;;;;;0.60;0.60;;;;;;;-5.11;100.00;95801.75;1014678;29;20612;-70
2024/01/14 02:01:43;;;;;;;0.38;0.35;;;;;;;-5.12;100.00;95800.94;1016014;29;20083;-68
2024/01/14 02:02:14;;;;;;;3.20;3.00;;;;;;;-5.08;100.00;95802.22;1020388;29;20043;-69
2024/01/14 02:02:44;;;;;;;2.08;1.95;;;;;;;-5.03;100.00;95802.53;1017826;29;20268;-68
2024/01/14 02:03:15;;;;;;;1.95;1.05;;;;;;;-5.07;100.00;95803.81;1023815;29;20030;-68
2024/01/14 02:03:45;;;;;;;4.78;2.55;;;;;;;-5.09;100.00;95798.06;1024350;28;20039;-68
2024/01/14 02:04:16;;;;;;;1.20;1.05;;;;;;;-5.06;100.00;95800.31;1024089;28;20023;-69
2024/01/14 02:04:47;;;;;;;2.63;0.80;;;;;;;-5.08;100.00;95797.09;1023427;29;20027;-68
2024/01/14 02:05:18;;;;;;;2.35;2.17;;;;;;;-5.08;100.00;95803.97;1024113;29;20015;-68
2024/01/14 02:05:48;;;;;;;1.85;1.75;;;;;;;-5.12;100.00;95793.28;1027899;28;20058;-68
2024/01/14 02:06:19;;;;;;;3.45;3.25;;;;;;;-5.06;100.00;95800.31;1023710;29;20263;-68
2024/01/14 02:06:51;;;;;;;0.50;0.50;;;;;;;-5.06;100.00;95797.75;1027926;28;20099;-69
2024/01/14 02:07:21;;;;;;;1.77;1.10;;;;;;;-5.05;100.00;95798.53;1023862;29;20085;-67
2024/01/14 02:07:52;;;;;;;2.25;2.00;;;;;;;-5.06;100.00;95795.19;1023834;28;20686;-66
2024/01/14 02:08:22;;;;;;;2.33;2.10;;;;;;;-5.03;100.00;95799.97;1019988;29;20020;-68
2024/01/14 02:08:53;;;;;;;2.63;2.40;;;;;;;-5.05;100.00;95794.22;1024152;28;20027;-68
2024/01/14 02:09:23;;;;;;;1.67;1.58;;;;;;;-5.01;100.00;95799.81;1016392;29;20032;-67
2024/01/14 02:09:54;;;;;;;4.63;1.65;;;;;;;-5.01;100.00;95798.03;1023715;29;20035;-68
2024/01/14 02:10:27;;;;;;;3.58;3.28;;;;;;;-5.02;100.00;95791.34;1020000;29;20116;-68
2024/01/14 02:10:57;;;;;;;2.40;2.05;;;;;;;-5.00;100.00;95791.97;1016083;29;20895;-68
2024/01/14 02:11:28;;;;;;;1.65;1.42;;;;;;;-5.05;100.00;95786.53;1022057;29;20028;-68
2024/01/14 02:12:01;;;;;;;2.17;2.00;;;;;;;-5.05;100.00;95786.53;1023954;29;20024;-68
2024/01/14 02:12:32;;;;;;;1.00;1.00;;;;;;;-5.03;100.00;95789.75;1028131;28;20069;-69
2024/01/14 02:13:04;;;;;;;3.47;2.15;;;;;;;-5.03;100.00;95788.91;1031153;28;20658;-67
2024/01/14 02:13:34;;;;;;;2.30;2.10;;;;;;;-5.02;100.00;95786.22;1029355;28;20113;-70
2024/01/14 02:14:05;;;;;;;1.30;1.20;;;;;;;-5.01;100.00;95787.00;1032966;28;20277;-68
2024/01/14 02:14:35;;;;;;;2.92;1.17;;;;;;;-5.02;100.00;95787.97;1032311;28;20053;-69
2024/01/14 02:15:06;;;;;;;1.67;1.58;;;;;;;-5.02;100.00;95783.66;1024155;29;20063;-69
2024/01/14 02:15:37;;;;;;;3.63;2.80;;;;;;;-5.03;100.00;95784.63;1024175;29;20106;-68
2024/01/14 02:16:10;;;;;;;1.55;1.52;;;;;;;-5.02;100.00;95786.22;1024779;28;20079;-68
2024/01/14 02:16:40;;;;;;;0.80;0.80;;;;;;;-5.03;100.00;95784.63;1027963;28;20627;-69
2024/01/14 02:17:11;;;;;;;5.05;1.17;;;;;;;-5.03;100.00;95779.50;1028152;28;20288;-68
2024/01/14 02:17:42;;;;;;;2.45;2.25;;;;;;;-5.03;100.00;95779.50;1028720;28;20031;-68
2024/01/14 02:18:12;;;;;;;7.35;1.98;;;;;;;-5.03;100.00;95776.94;1031493;28;20033;-69
2024/01/14 02:18:42;;;;;;;3.08;1.80;;;;;;;-5.03;100.00;95774.41;1036449;28;20058;-69
2024/01/14 02:19:13;;;;;;;1.13;1.13;;;;;;;-5.02;100.00;95781.09;1032585;28;20027;-68
2024/01/14 02:19:46;;;;;;;1.00;1.00;;;;;;;-4.98;100.00;95771.34;1035250;28;20065;-68
2024/01/14 02:20:17;;;;;;;1.95;1.85;;;;;;;-4.99;100.00;95777.41;1032604;28;20129;-69
2024/01/14 02:20:47;;;;;;;0.47;0.47;;;;;;;-5.00;100.00;95771.50;1028643;28;20285;-70
2024/01/14 02:21:20;;;;;;;3.78;2.38;;;;;;;-5.01;100.00;95771.66;1027638;28;20061;-68
2024/01/14 02:21:56;;;;;;;6.20;3.08;;;;;;;-5.06;100.00;95763.69;1024459;29;20533;-71
2024/01/14 02:22:28;;;;;;;4.68;1.75;;;;;;;-5.05;100.00;95771.19;1024112;29;20275;-69
2024/01/14 02:22:59;;;;;;;1.15;1.15;;;;;;;-5.03;100.00;95768.44;1021602;29;20319;-65